sensor_id;sensor_type;location;lat;lon;timestamp;P1;durP1;ratioP1;P2;durP2;ratioP2
15841;SDS011;8021;48.022;11.812;2024-03-29T00:00:25;0.40;;;0.40;;
15841;SDS011;8021;48.022;11.812;2024-03-29T00:02:50;0.40;;;0.40;;
15841;SDS011;8021;48.022;11.812;2024-03-29T00:05:16;0.50;;;0.50;;
15841;SDS011;8021;48.022;11.812;2024-03-29T00:07:42;0.40;;;0.40;;
15841;SDS011;8021;48.022;11.812;2024-03-29T00:10:08;0.50;;;0.50;;
15841;SDS011;8021;48.022;11.812;2024-03-29T00:12:36;0.50;;;0.50;;
15841;SDS011;8021;48.022;11.812;2024-03-29T00:15:01;0.50;;;0.50;;
15841;SDS011;8021;48.022;11.812;2024-03-29T00:17:27;0.40;;;0.40;;
15841;SDS011;8021;48.022;11.812;2024-03-29T00:19:53;0.40;;;0.40;;
15841;SDS011;8021;48.022;11.812;2024-03-29T00:22:19;0.40;;;0.40;;
15841;SDS011;8021;48.022;11.812;2024-03-29T00:24:45;0.40;;;0.40;;
15841;SDS011;8021;48.022;11.812;2024-03-29T00:27:10;0.40;;;0.40;;
15841;SDS011;8021;48.022;11.812;2024-03-29T00:29:38;0.30;;;0.30;;
15841;SDS011;8021;48.022;11.812;2024-03-29T00:32:04;0.40;;;0.40;;
15841;SDS011;8021;48.022;11.812;2024-03-29T00:34:29;0.50;;;0.50;;
15841;SDS011;8021;48.022;11.812;2024-03-29T00:36:55;0.40;;;0.40;;
15841;SDS011;8021;48.022;11.812;2024-03-29T00:39:21;0.40;;;0.40;;
15841;SDS011;8021;48.022;11.812;2024-03-29T00:41:47;0.43;;;0.43;;
15841;SDS011;8021;48.022;11.812;2024-03-29T00:44:13;0.50;;;0.50;;
15841;SDS011;8021;48.022;11.812;2024-03-29T00:46:40;0.40;;;0.40;;
15841;SDS011;8021;48.022;11.812;2024-03-29T00:49:05;0.60;;;0.60;;
15841;SDS011;8021;48.022;11.812;2024-03-29T00:51:31;0.40;;;0.40;;
15841;SDS011;8021;48.022;11.812;2024-03-29T00:53:57;0.40;;;0.40;;
15841;SDS011;8021;48.022;11.812;2024-03-29T00:56:24;0.47;;;0.47;;
15841;SDS011;8021;48.022;11.812;2024-03-29T00:58:50;0.47;;;0.47;;
15841;SDS011;8021;48.022;11.812;2024-03-29T01:01:16;0.50;;;0.50;;
15841;SDS011;8021;48.022;11.812;2024-03-29T01:03:43;0.45;;;0.45;;
15841;SDS011;8021;48.022;11.812;2024-03-29T01:06:09;0.50;;;0.50;;
15841;SDS011;8021;48.022;11.812;2024-03-29T01:08:35;0.40;;;0.40;;
15841;SDS011;8021;48.022;11.812;2024-03-29T01:11:00;0.40;;;0.40;;
15841;SDS011;8021;48.022;11.812;2024-03-29T01:13:26;0.43;;;0.43;;
15841;SDS011;8021;48.022;11.812;2024-03-29T01:15:52;0.40;;;0.40;;
15841;SDS011;8021;48.022;11.812;2024-03-29T01:18:18;0.50;;;0.50;;
15841;SDS011;8021;48.022;11.812;2024-03-29T01:20:45;0.60;;;0.60;;
15841;SDS011;8021;48.022;11.812;2024-03-29T01:23:11;0.52;;;0.52;;
15841;SDS011;8021;48.022;11.812;2024-03-29T01:25:36;0.60;;;0.60;;
15841;SDS011;8021;48.022;11.812;2024-03-29T01:28:02;0.40;;;0.40;;
15841;SDS011;8021;48.022;11.812;2024-03-29T01:30:28;0.40;;;0.40;;
15841;SDS011;8021;48.022;11.812;2024-03-29T01:32:54;0.40;;;0.40;;
15841;SDS011;8021;48.022;11.812;2024-03-29T01:35:20;0.50;;;0.50;;
15841;SDS011;8021;48.022;11.812;2024-03-29T01:37:47;0.40;;;0.40;;
15841;SDS011;8021;48.022;11.812;2024-03-29T01:40:13;0.70;;;0.70;;
15841;SDS011;8021;48.022;11.812;2024-03-29T01:42:38;0.40;;;0.40;;
15841;SDS011;8021;48.022;11.812;2024-03-29T01:45:04;0.50;;;0.50;;
15841;SDS011;8021;48.022;11.812;2024-03-29T01:47:31;0.50;;;0.50;;
15841;SDS011;8021;48.022;11.812;2024-03-29T01:49:58;0.50;;;0.50;;
15841;SDS011;8021;48.022;11.812;2024-03-29T01:52:26;0.50;;;0.50;;
15841;SDS011;8021;48.022;11.812;2024-03-29T01:54:55;0.55;;;0.55;;
15841;SDS011;8021;48.022;11.812;2024-03-29T01:57:22;0.50;;;0.50;;
15841;SDS011;8021;48.022;11.812;2024-03-29T01:59:49;0.50;;;0.50;;
15841;SDS011;8021;48.022;11.812;2024-03-29T02:02:16;0.60;;;0.60;;
15841;SDS011;8021;48.022;11.812;2024-03-29T02:04:43;0.50;;;0.50;;
15841;SDS011;8021;48.022;11.812;2024-03-29T02:07:10;0.60;;;0.60;;
15841;SDS011;8021;48.022;11.812;2024-03-29T02:09:37;0.55;;;0.55;;
15841;SDS011;8021;48.022;11.812;2024-03-29T02:12:04;0.40;;;0.40;;
15841;SDS011;8021;48.022;11.812;2024-03-29T02:14:31;0.50;;;0.50;;
15841;SDS011;8021;48.022;11.812;2024-03-29T02:16:58;0.50;;;0.50;;
15841;SDS011;8021;48.022;11.812;2024-03-29T02:19:24;0.60;;;0.60;;
15841;SDS011;8021;48.022;11.812;2024-03-29T02:21:51;0.50;;;0.50;;
15841;SDS011;8021;48.022;11.812;2024-03-29T02:24:20;0.50;;;0.50;;
15841;SDS011;8021;48.022;11.812;2024-03-29T02:26:47;0.50;;;0.50;;
15841;SDS011;8021;48.022;11.812;2024-03-29T02:29:14;0.55;;;0.55;;
15841;SDS011;8021;48.022;11.812;2024-03-29T02:31:41;0.50;;;0.50;;
15841;SDS011;8021;48.022;11.812;2024-03-29T02:34:07;0.57;;;0.57;;
15841;SDS011;8021;48.022;11.812;2024-03-29T02:36:35;0.50;;;0.50;;
15841;SDS011;8021;48.022;11.812;2024-03-29T02:39:02;0.50;;;0.50;;
15841;SDS011;8021;48.022;11.812;2024-03-29T02:41:35;0.50;;;0.50;;
15841;SDS011;8021;48.022;11.812;2024-03-29T02:44:01;0.50;;;0.50;;
15841;SDS011;8021;48.022;11.812;2024-03-29T02:46:29;0.45;;;0.45;;
15841;SDS011;8021;48.022;11.812;2024-03-29T02:48:55;0.68;;;0.68;;
15841;SDS011;8021;48.022;11.812;2024-03-29T02:51:22;0.50;;;0.50;;
15841;SDS011;8021;48.022;11.812;2024-03-29T02:53:48;0.50;;;0.50;;
15841;SDS011;8021;48.022;11.812;2024-03-29T02:56:14;0.50;;;0.50;;
15841;SDS011;8021;48.022;11.812;2024-03-29T02:58:45;0.50;;;0.50;;
15841;SDS011;8021;48.022;11.812;2024-03-29T03:01:12;0.40;;;0.40;;
15841;SDS011;8021;48.022;11.812;2024-03-29T03:03:37;0.50;;;0.50;;
15841;SDS011;8021;48.022;11.812;2024-03-29T03:06:04;0.50;;;0.50;;
15841;SDS011;8021;48.022;11.812;2024-03-29T03:08:30;0.50;;;0.50;;
15841;SDS011;8021;48.022;11.812;2024-03-29T03:11:14;0.40;;;0.40;;
15841;SDS011;8021;48.022;11.812;2024-03-29T03:13:40;0.40;;;0.40;;
15841;SDS011;8021;48.022;11.812;2024-03-29T03:16:09;0.60;;;0.60;;
15841;SDS011;8021;48.022;11.812;2024-03-29T03:18:35;0.47;;;0.47;;
15841;SDS011;8021;48.022;11.812;2024-03-29T03:21:01;0.50;;;0.50;;
15841;SDS011;8021;48.022;11.812;2024-03-29T03:23:28;0.50;;;0.50;;
15841;SDS011;8021;48.022;11.812;2024-03-29T03:25:54;0.40;;;0.40;;
15841;SDS011;8021;48.022;11.812;2024-03-29T03:28:21;0.45;;;0.45;;
15841;SDS011;8021;48.022;11.812;2024-03-29T03:30:47;0.50;;;0.50;;
15841;SDS011;8021;48.022;11.812;2024-03-29T03:33:15;0.40;;;0.40;;
15841;SDS011;8021;48.022;11.812;2024-03-29T03:35:41;0.50;;;0.50;;
15841;SDS011;8021;48.022;11.812;2024-03-29T03:38:07;0.50;;;0.50;;
15841;SDS011;8021;48.022;11.812;2024-03-29T03:40:34;0.40;;;0.40;;
15841;SDS011;8021;48.022;11.812;2024-03-29T03:43:00;0.40;;;0.40;;
15841;SDS011;8021;48.022;11.812;2024-03-29T03:45:27;0.60;;;0.60;;
15841;SDS011;8021;48.022;11.812;2024-03-29T03:47:53;0.57;;;0.57;;
15841;SDS011;8021;48.022;11.812;2024-03-29T03:50:21;0.50;;;0.50;;
15841;SDS011;8021;48.022;11.812;2024-03-29T03:52:48;0.40;;;0.40;;
15841;SDS011;8021;48.022;11.812;2024-03-29T03:55:13;0.50;;;0.50;;
15841;SDS011;8021;48.022;11.812;2024-03-29T03:57:40;0.60;;;0.60;;
15841;SDS011;8021;48.022;11.812;2024-03-29T04:00:07;0.40;;;0.40;;
15841;SDS011;8021;48.022;11.812;2024-03-29T04:02:40;0.40;;;0.40;;
15841;SDS011;8021;48.022;11.812;2024-03-29T04:05:07;0.40;;;0.40;;
15841;SDS011;8021;48.022;11.812;2024-03-29T04:07:34;0.50;;;0.50;;
15841;SDS011;8021;48.022;11.812;2024-03-29T04:10:01;0.40;;;0.40;;
15841;SDS011;8021;48.022;11.812;2024-03-29T04:12:26;0.43;;;0.43;;
15841;SDS011;8021;48.022;11.812;2024-03-29T04:14:53;0.50;;;0.50;;
15841;SDS011;8021;48.022;11.812;2024-03-29T04:17:19;0.50;;;0.50;;
15841;SDS011;8021;48.022;11.812;2024-03-29T04:19:49;0.50;;;0.50;;
15841;SDS011;8021;48.022;11.812;2024-03-29T04:22:14;0.50;;;0.50;;
15841;SDS011;8021;48.022;11.812;2024-03-29T04:24:42;0.55;;;0.55;;
15841;SDS011;8021;48.022;11.812;2024-03-29T04:27:08;0.50;;;0.50;;
15841;SDS011;8021;48.022;11.812;2024-03-29T04:29:35;0.50;;;0.50;;
15841;SDS011;8021;48.022;11.812;2024-03-29T04:32:00;0.52;;;0.52;;
15841;SDS011;8021;48.022;11.812;2024-03-29T04:34:27;0.50;;;0.50;;
15841;SDS011;8021;48.022;11.812;2024-03-29T04:36:53;0.50;;;0.50;;
15841;SDS011;8021;48.022;11.812;2024-03-29T04:39:20;0.50;;;0.50;;
15841;SDS011;8021;48.022;11.812;2024-03-29T04:41:48;0.50;;;0.50;;
15841;SDS011;8021;48.022;11.812;2024-03-29T04:44:22;0.50;;;0.50;;
15841;SDS011;8021;48.022;11.812;2024-03-29T04:46:49;0.57;;;0.57;;
15841;SDS011;8021;48.022;11.812;2024-03-29T04:49:17;0.55;;;0.55;;
15841;SDS011;8021;48.022;11.812;2024-03-29T04:51:48;0.50;;;0.50;;
15841;SDS011;8021;48.022;11.812;2024-03-29T04:54:14;0.50;;;0.50;;
15841;SDS011;8021;48.022;11.812;2024-03-29T04:56:41;0.50;;;0.50;;
15841;SDS011;8021;48.022;11.812;2024-03-29T04:59:09;0.50;;;0.50;;
15841;SDS011;8021;48.022;11.812;2024-03-29T05:01:36;0.43;;;0.43;;
15841;SDS011;8021;48.022;11.812;2024-03-29T05:04:03;0.40;;;0.40;;
15841;SDS011;8021;48.022;11.812;2024-03-29T05:06:31;0.50;;;0.50;;
15841;SDS011;8021;48.022;11.812;2024-03-29T05:08:58;0.60;;;0.60;;
15841;SDS011;8021;48.022;11.812;2024-03-29T05:11:24;0.50;;;0.50;;
15841;SDS011;8021;48.022;11.812;2024-03-29T05:13:51;0.60;;;0.60;;
15841;SDS011;8021;48.022;11.812;2024-03-29T05:16:19;0.40;;;0.40;;
15841;SDS011;8021;48.022;11.812;2024-03-29T05:18:47;0.40;;;0.40;;
15841;SDS011;8021;48.022;11.812;2024-03-29T05:21:14;0.40;;;0.40;;
15841;SDS011;8021;48.022;11.812;2024-03-29T05:23:45;0.40;;;0.40;;
15841;SDS011;8021;48.022;11.812;2024-03-29T05:26:12;0.40;;;0.40;;
15841;SDS011;8021;48.022;11.812;2024-03-29T05:28:39;0.40;;;0.40;;
15841;SDS011;8021;48.022;11.812;2024-03-29T05:31:10;0.40;;;0.40;;
15841;SDS011;8021;48.022;11.812;2024-03-29T05:33:39;0.40;;;0.40;;
15841;SDS011;8021;48.022;11.812;2024-03-29T05:36:05;0.40;;;0.40;;
15841;SDS011;8021;48.022;11.812;2024-03-29T05:38:34;0.47;;;0.47;;
15841;SDS011;8021;48.022;11.812;2024-03-29T05:41:00;0.50;;;0.50;;
15841;SDS011;8021;48.022;11.812;2024-03-29T05:43:27;0.40;;;0.40;;
15841;SDS011;8021;48.022;11.812;2024-03-29T05:45:54;0.40;;;0.40;;
15841;SDS011;8021;48.022;11.812;2024-03-29T05:48:20;0.40;;;0.40;;
15841;SDS011;8021;48.022;11.812;2024-03-29T05:50:49;0.40;;;0.40;;
15841;SDS011;8021;48.022;11.812;2024-03-29T05:53:16;0.30;;;0.30;;
15841;SDS011;8021;48.022;11.812;2024-03-29T05:55:42;0.40;;;0.40;;
15841;SDS011;8021;48.022;11.812;2024-03-29T05:58:09;0.30;;;0.30;;
15841;SDS011;8021;48.022;11.812;2024-03-29T06:00:36;0.30;;;0.30;;
15841;SDS011;8021;48.022;11.812;2024-03-29T06:03:03;0.30;;;0.30;;
15841;SDS011;8021;48.022;11.812;2024-03-29T06:05:30;0.40;;;0.40;;
15841;SDS011;8021;48.022;11.812;2024-03-29T06:07:58;0.30;;;0.30;;
15841;SDS011;8021;48.022;11.812;2024-03-29T06:10:24;0.47;;;0.47;;
15841;SDS011;8021;48.022;11.812;2024-03-29T06:12:51;0.50;;;0.50;;
15841;SDS011;8021;48.022;11.812;2024-03-29T06:15:18;0.50;;;0.50;;
15841;SDS011;8021;48.022;11.812;2024-03-29T06:18:02;0.50;;;0.50;;
15841;SDS011;8021;48.022;11.812;2024-03-29T06:20:29;0.40;;;0.40;;
15841;SDS011;8021;48.022;11.812;2024-03-29T06:22:58;0.40;;;0.40;;
15841;SDS011;8021;48.022;11.812;2024-03-29T06:25:29;0.50;;;0.50;;
15841;SDS011;8021;48.022;11.812;2024-03-29T06:27:56;0.40;;;0.40;;
15841;SDS011;8021;48.022;11.812;2024-03-29T06:30:23;0.30;;;0.30;;
15841;SDS011;8021;48.022;11.812;2024-03-29T06:32:49;0.40;;;0.40;;
15841;SDS011;8021;48.022;11.812;2024-03-29T06:35:16;0.30;;;0.30;;
15841;SDS011;8021;48.022;11.812;2024-03-29T06:37:45;0.30;;;0.28;;
15841;SDS011;8021;48.022;11.812;2024-03-29T06:40:14;0.30;;;0.30;;
15841;SDS011;8021;48.022;11.812;2024-03-29T06:42:40;0.30;;;0.22;;
15841;SDS011;8021;48.022;11.812;2024-03-29T06:45:07;0.30;;;0.20;;
15841;SDS011;8021;48.022;11.812;2024-03-29T06:47:35;0.40;;;0.40;;
15841;SDS011;8021;48.022;11.812;2024-03-29T06:50:02;0.40;;;0.40;;
15841;SDS011;8021;48.022;11.812;2024-03-29T06:52:29;0.40;;;0.40;;
15841;SDS011;8021;48.022;11.812;2024-03-29T06:54:56;0.30;;;0.30;;
15841;SDS011;8021;48.022;11.812;2024-03-29T06:57:24;0.30;;;0.30;;
15841;SDS011;8021;48.022;11.812;2024-03-29T06:59:54;0.30;;;0.30;;
15841;SDS011;8021;48.022;11.812;2024-03-29T07:02:21;0.20;;;0.20;;
15841;SDS011;8021;48.022;11.812;2024-03-29T07:04:48;0.30;;;0.20;;
15841;SDS011;8021;48.022;11.812;2024-03-29T07:07:15;0.22;;;0.22;;
15841;SDS011;8021;48.022;11.812;2024-03-29T07:09:42;0.20;;;0.20;;
15841;SDS011;8021;48.022;11.812;2024-03-29T07:12:08;0.20;;;0.20;;
15841;SDS011;8021;48.022;11.812;2024-03-29T07:14:36;0.20;;;0.20;;
15841;SDS011;8021;48.022;11.812;2024-03-29T07:17:03;0.13;;;0.13;;
15841;SDS011;8021;48.022;11.812;2024-03-29T07:19:30;0.17;;;0.17;;
15841;SDS011;8021;48.022;11.812;2024-03-29T07:21:57;0.15;;;0.15;;
15841;SDS011;8021;48.022;11.812;2024-03-29T07:24:23;0.10;;;0.10;;
15841;SDS011;8021;48.022;11.812;2024-03-29T07:26:52;0.10;;;0.10;;
15841;SDS011;8021;48.022;11.812;2024-03-29T07:29:19;0.20;;;0.20;;
15841;SDS011;8021;48.022;11.812;2024-03-29T07:31:47;0.10;;;0.10;;
15841;SDS011;8021;48.022;11.812;2024-03-29T07:34:14;0.10;;;0.10;;
15841;SDS011;8021;48.022;11.812;2024-03-29T07:36:40;0.20;;;0.20;;
15841;SDS011;8021;48.022;11.812;2024-03-29T07:39:07;0.10;;;0.10;;
15841;SDS011;8021;48.022;11.812;2024-03-29T07:41:34;0.10;;;0.10;;
15841;SDS011;8021;48.022;11.812;2024-03-29T07:44:00;0.10;;;0.10;;
15841;SDS011;8021;48.022;11.812;2024-03-29T07:46:29;0.10;;;0.10;;
15841;SDS011;8021;48.022;11.812;2024-03-29T07:48:58;0.10;;;0.10;;
15841;SDS011;8021;48.022;11.812;2024-03-29T07:51:24;0.10;;;0.10;;
15841;SDS011;8021;48.022;11.812;2024-03-29T07:53:51;0.10;;;0.10;;
15841;SDS011;8021;48.022;11.812;2024-03-29T07:56:18;0.10;;;0.10;;
15841;SDS011;8021;48.022;11.812;2024-03-29T07:58:49;0.10;;;0.10;;
15841;SDS011;8021;48.022;11.812;2024-03-29T08:01:17;0.10;;;0.10;;
15841;SDS011;8021;48.022;11.812;2024-03-29T08:03:44;0.10;;;0.10;;
15841;SDS011;8021;48.022;11.812;2024-03-29T08:06:12;0.10;;;0.10;;
15841;SDS011;8021;48.022;11.812;2024-03-29T08:08:42;0.10;;;0.10;;
15841;SDS011;8021;48.022;11.812;2024-03-29T08:11:12;0.10;;;0.10;;
15841;SDS011;8021;48.022;11.812;2024-03-29T08:13:39;0.10;;;0.10;;
15841;SDS011;8021;48.022;11.812;2024-03-29T08:16:06;0.10;;;0.10;;
15841;SDS011;8021;48.022;11.812;2024-03-29T08:18:34;0.10;;;0.10;;
15841;SDS011;8021;48.022;11.812;2024-03-29T08:21:00;0.10;;;0.10;;
15841;SDS011;8021;48.022;11.812;2024-03-29T08:23:29;0.10;;;0.10;;
15841;SDS011;8021;48.022;11.812;2024-03-29T08:25:56;0.10;;;0.10;;
15841;SDS011;8021;48.022;11.812;2024-03-29T08:28:23;0.10;;;0.10;;
15841;SDS011;8021;48.022;11.812;2024-03-29T08:30:58;0.10;;;0.10;;
15841;SDS011;8021;48.022;11.812;2024-03-29T08:33:25;0.10;;;0.10;;
15841;SDS011;8021;48.022;11.812;2024-03-29T08:35:52;0.08;;;0.08;;
15841;SDS011;8021;48.022;11.812;2024-03-29T08:38:19;0.10;;;0.10;;
15841;SDS011;8021;48.022;11.812;2024-03-29T08:40:47;0.10;;;0.10;;
15841;SDS011;8021;48.022;11.812;2024-03-29T08:43:15;0.10;;;0.10;;
15841;SDS011;8021;48.022;11.812;2024-03-29T08:45:43;0.05;;;0.05;;
15841;SDS011;8021;48.022;11.812;2024-03-29T08:48:10;0.03;;;0.00;;
15841;SDS011;8021;48.022;11.812;2024-03-29T08:50:36;0.00;;;0.00;;
15841;SDS011;8021;48.022;11.812;2024-03-29T08:53:03;0.05;;;0.05;;
15841;SDS011;8021;48.022;11.812;2024-03-29T08:55:30;0.10;;;0.10;;
15841;SDS011;8021;48.022;11.812;2024-03-29T08:58:01;0.00;;;0.00;;
15841;SDS011;8021;48.022;11.812;2024-03-29T09:00:28;0.10;;;0.10;;
15841;SDS011;8021;48.022;11.812;2024-03-29T09:02:55;0.00;;;0.00;;
15841;SDS011;8021;48.022;11.812;2024-03-29T09:05:22;0.10;;;0.10;;
15841;SDS011;8021;48.022;11.812;2024-03-29T09:07:49;0.10;;;0.10;;
15841;SDS011;8021;48.022;11.812;2024-03-29T09:10:16;0.13;;;0.13;;
15841;SDS011;8021;48.022;11.812;2024-03-29T09:12:43;0.10;;;0.10;;
15841;SDS011;8021;48.022;11.812;2024-03-29T09:15:11;0.20;;;0.20;;
15841;SDS011;8021;48.022;11.812;2024-03-29T09:17:41;0.10;;;0.10;;
15841;SDS011;8021;48.022;11.812;2024-03-29T09:20:08;0.10;;;0.10;;
15841;SDS011;8021;48.022;11.812;2024-03-29T09:22:35;0.10;;;0.10;;
15841;SDS011;8021;48.022;11.812;2024-03-29T09:25:03;0.15;;;0.15;;
15841;SDS011;8021;48.022;11.812;2024-03-29T09:27:30;0.10;;;0.10;;
15841;SDS011;8021;48.022;11.812;2024-03-29T09:29:59;0.20;;;0.20;;
15841;SDS011;8021;48.022;11.812;2024-03-29T09:32:27;0.20;;;0.20;;
15841;SDS011;8021;48.022;11.812;2024-03-29T09:34:53;0.20;;;0.20;;
15841;SDS011;8021;48.022;11.812;2024-03-29T09:37:20;0.20;;;0.10;;
15841;SDS011;8021;48.022;11.812;2024-03-29T09:39:48;0.20;;;0.20;;
15841;SDS011;8021;48.022;11.812;2024-03-29T09:42:15;0.30;;;0.30;;
15841;SDS011;8021;48.022;11.812;2024-03-29T09:44:43;0.20;;;0.20;;
15841;SDS011;8021;48.022;11.812;2024-03-29T09:47:11;0.20;;;0.20;;
15841;SDS011;8021;48.022;11.812;2024-03-29T09:49:42;0.20;;;0.20;;
15841;SDS011;8021;48.022;11.812;2024-03-29T09:52:10;0.20;;;0.20;;
15841;SDS011;8021;48.022;11.812;2024-03-29T09:54:37;0.20;;;0.20;;
15841;SDS011;8021;48.022;11.812;2024-03-29T09:57:04;0.20;;;0.20;;
15841;SDS011;8021;48.022;11.812;2024-03-29T09:59:31;0.20;;;0.20;;
15841;SDS011;8021;48.022;11.812;2024-03-29T10:02:00;0.22;;;0.22;;
15841;SDS011;8021;48.022;11.812;2024-03-29T10:04:30;0.20;;;0.20;;
15841;SDS011;8021;48.022;11.812;2024-03-29T10:07:00;0.20;;;0.20;;
15841;SDS011;8021;48.022;11.812;2024-03-29T10:09:27;0.20;;;0.20;;
15841;SDS011;8021;48.022;11.812;2024-03-29T10:11:57;0.20;;;0.20;;
15841;SDS011;8021;48.022;11.812;2024-03-29T10:14:24;0.20;;;0.20;;
15841;SDS011;8021;48.022;11.812;2024-03-29T10:16:51;0.20;;;0.20;;
15841;SDS011;8021;48.022;11.812;2024-03-29T10:19:18;0.20;;;0.20;;
15841;SDS011;8021;48.022;11.812;2024-03-29T10:21:45;0.20;;;0.20;;
15841;SDS011;8021;48.022;11.812;2024-03-29T10:24:13;0.20;;;0.20;;
15841;SDS011;8021;48.022;11.812;2024-03-29T10:26:41;0.20;;;0.20;;
15841;SDS011;8021;48.022;11.812;2024-03-29T10:29:09;0.20;;;0.20;;
15841;SDS011;8021;48.022;11.812;2024-03-29T10:31:36;0.28;;;0.28;;
15841;SDS011;8021;48.022;11.812;2024-03-29T10:34:03;0.20;;;0.20;;
15841;SDS011;8021;48.022;11.812;2024-03-29T10:36:30;0.15;;;0.15;;
15841;SDS011;8021;48.022;11.812;2024-03-29T10:39:01;0.20;;;0.20;;
15841;SDS011;8021;48.022;11.812;2024-03-29T10:41:30;0.10;;;0.10;;
15841;SDS011;8021;48.022;11.812;2024-03-29T10:43:59;0.20;;;0.20;;
15841;SDS011;8021;48.022;11.812;2024-03-29T10:46:29;0.10;;;0.10;;
15841;SDS011;8021;48.022;11.812;2024-03-29T10:48:57;0.20;;;0.20;;
15841;SDS011;8021;48.022;11.812;2024-03-29T10:51:24;0.10;;;0.10;;
15841;SDS011;8021;48.022;11.812;2024-03-29T10:53:51;0.10;;;0.10;;
15841;SDS011;8021;48.022;11.812;2024-03-29T10:56:19;0.10;;;0.10;;
15841;SDS011;8021;48.022;11.812;2024-03-29T10:58:49;0.10;;;0.10;;
15841;SDS011;8021;48.022;11.812;2024-03-29T11:01:16;0.10;;;0.10;;
15841;SDS011;8021;48.022;11.812;2024-03-29T11:03:44;0.10;;;0.10;;
15841;SDS011;8021;48.022;11.812;2024-03-29T11:06:12;0.10;;;0.10;;
15841;SDS011;8021;48.022;11.812;2024-03-29T11:08:40;0.15;;;0.15;;
15841;SDS011;8021;48.022;11.812;2024-03-29T11:11:10;0.13;;;0.13;;
15841;SDS011;8021;48.022;11.812;2024-03-29T11:13:40;0.10;;;0.10;;
15841;SDS011;8021;48.022;11.812;2024-03-29T11:16:11;0.10;;;0.10;;
15841;SDS011;8021;48.022;11.812;2024-03-29T11:18:38;0.15;;;0.15;;
15841;SDS011;8021;48.022;11.812;2024-03-29T11:21:05;0.10;;;0.10;;
15841;SDS011;8021;48.022;11.812;2024-03-29T11:23:35;0.10;;;0.10;;
15841;SDS011;8021;48.022;11.812;2024-03-29T11:26:02;0.10;;;0.10;;
15841;SDS011;8021;48.022;11.812;2024-03-29T11:28:30;0.10;;;0.10;;
15841;SDS011;8021;48.022;11.812;2024-03-29T11:31:00;0.10;;;0.10;;
15841;SDS011;8021;48.022;11.812;2024-03-29T11:33:34;0.10;;;0.10;;
15841;SDS011;8021;48.022;11.812;2024-03-29T11:36:06;0.10;;;0.10;;
15841;SDS011;8021;48.022;11.812;2024-03-29T11:38:33;0.10;;;0.10;;
15841;SDS011;8021;48.022;11.812;2024-03-29T11:41:02;0.10;;;0.10;;
15841;SDS011;8021;48.022;11.812;2024-03-29T11:43:30;0.10;;;0.10;;
15841;SDS011;8021;48.022;11.812;2024-03-29T11:45:57;0.10;;;0.10;;
15841;SDS011;8021;48.022;11.812;2024-03-29T11:48:26;0.10;;;0.10;;
15841;SDS011;8021;48.022;11.812;2024-03-29T11:50:54;0.10;;;0.10;;
15841;SDS011;8021;48.022;11.812;2024-03-29T11:53:21;0.10;;;0.10;;
15841;SDS011;8021;48.022;11.812;2024-03-29T11:55:47;0.20;;;0.20;;
15841;SDS011;8021;48.022;11.812;2024-03-29T11:58:18;0.15;;;0.15;;
15841;SDS011;8021;48.022;11.812;2024-03-29T12:00:45;0.15;;;0.15;;
15841;SDS011;8021;48.022;11.812;2024-03-29T12:03:14;0.10;;;0.10;;
15841;SDS011;8021;48.022;11.812;2024-03-29T12:05:41;0.13;;;0.13;;
15841;SDS011;8021;48.022;11.812;2024-03-29T12:08:10;0.10;;;0.10;;
15841;SDS011;8021;48.022;11.812;2024-03-29T12:10:37;0.20;;;0.20;;
15841;SDS011;8021;48.022;11.812;2024-03-29T12:13:04;0.10;;;0.10;;
15841;SDS011;8021;48.022;11.812;2024-03-29T12:15:31;0.10;;;0.10;;
15841;SDS011;8021;48.022;11.812;2024-03-29T12:17:58;0.20;;;0.20;;
15841;SDS011;8021;48.022;11.812;2024-03-29T12:20:25;0.13;;;0.13;;
15841;SDS011;8021;48.022;11.812;2024-03-29T12:22:52;0.10;;;0.10;;
15841;SDS011;8021;48.022;11.812;2024-03-29T12:25:21;0.10;;;0.10;;
15841;SDS011;8021;48.022;11.812;2024-03-29T12:27:47;0.10;;;0.10;;
15841;SDS011;8021;48.022;11.812;2024-03-29T12:30:14;0.20;;;0.20;;
15841;SDS011;8021;48.022;11.812;2024-03-29T12:32:41;0.10;;;0.10;;
15841;SDS011;8021;48.022;11.812;2024-03-29T12:35:08;0.10;;;0.10;;
15841;SDS011;8021;48.022;11.812;2024-03-29T12:37:35;0.10;;;0.10;;
15841;SDS011;8021;48.022;11.812;2024-03-29T12:40:04;0.15;;;0.15;;
15841;SDS011;8021;48.022;11.812;2024-03-29T12:42:38;0.10;;;0.10;;
15841;SDS011;8021;48.022;11.812;2024-03-29T12:45:06;0.20;;;0.20;;
15841;SDS011;8021;48.022;11.812;2024-03-29T12:47:34;0.10;;;0.10;;
15841;SDS011;8021;48.022;11.812;2024-03-29T12:50:01;0.20;;;0.20;;
15841;SDS011;8021;48.022;11.812;2024-03-29T12:52:36;0.10;;;0.10;;
15841;SDS011;8021;48.022;11.812;2024-03-29T12:55:03;0.10;;;0.10;;
15841;SDS011;8021;48.022;11.812;2024-03-29T12:57:31;0.20;;;0.20;;
15841;SDS011;8021;48.022;11.812;2024-03-29T13:00:23;0.10;;;0.10;;
15841;SDS011;8021;48.022;11.812;2024-03-29T13:02:50;0.20;;;0.20;;
15841;SDS011;8021;48.022;11.812;2024-03-29T13:05:17;0.10;;;0.10;;
15841;SDS011;8021;48.022;11.812;2024-03-29T13:07:43;0.20;;;0.20;;
15841;SDS011;8021;48.022;11.812;2024-03-29T13:10:10;0.10;;;0.10;;
15841;SDS011;8021;48.022;11.812;2024-03-29T13:12:39;0.10;;;0.10;;
15841;SDS011;8021;48.022;11.812;2024-03-29T13:15:15;0.10;;;0.10;;
15841;SDS011;8021;48.022;11.812;2024-03-29T13:17:43;0.10;;;0.10;;
15841;SDS011;8021;48.022;11.812;2024-03-29T13:20:11;0.10;;;0.10;;
15841;SDS011;8021;48.022;11.812;2024-03-29T13:22:37;0.20;;;0.20;;
15841;SDS011;8021;48.022;11.812;2024-03-29T13:25:07;0.10;;;0.10;;
15841;SDS011;8021;48.022;11.812;2024-03-29T13:27:35;0.17;;;0.17;;
15841;SDS011;8021;48.022;11.812;2024-03-29T13:30:02;0.10;;;0.10;;
15841;SDS011;8021;48.022;11.812;2024-03-29T13:32:30;0.10;;;0.10;;
15841;SDS011;8021;48.022;11.812;2024-03-29T13:34:59;0.10;;;0.10;;
15841;SDS011;8021;48.022;11.812;2024-03-29T13:37:27;0.10;;;0.10;;
15841;SDS011;8021;48.022;11.812;2024-03-29T13:39:54;0.13;;;0.13;;
15841;SDS011;8021;48.022;11.812;2024-03-29T13:42:21;0.10;;;0.10;;
15841;SDS011;8021;48.022;11.812;2024-03-29T13:44:49;0.10;;;0.10;;
15841;SDS011;8021;48.022;11.812;2024-03-29T13:47:16;0.10;;;0.10;;
15841;SDS011;8021;48.022;11.812;2024-03-29T13:49:43;0.10;;;0.10;;
15841;SDS011;8021;48.022;11.812;2024-03-29T13:52:11;0.10;;;0.10;;
15841;SDS011;8021;48.022;11.812;2024-03-29T13:54:42;0.10;;;0.10;;
15841;SDS011;8021;48.022;11.812;2024-03-29T13:57:08;0.20;;;0.20;;
15841;SDS011;8021;48.022;11.812;2024-03-29T13:59:35;0.10;;;0.10;;
15841;SDS011;8021;48.022;11.812;2024-03-29T14:02:02;0.10;;;0.10;;
15841;SDS011;8021;48.022;11.812;2024-03-29T14:04:29;0.10;;;0.10;;
15841;SDS011;8021;48.022;11.812;2024-03-29T14:06:56;0.10;;;0.10;;
15841;SDS011;8021;48.022;11.812;2024-03-29T14:09:24;0.10;;;0.10;;
15841;SDS011;8021;48.022;11.812;2024-03-29T14:11:51;0.10;;;0.10;;
15841;SDS011;8021;48.022;11.812;2024-03-29T14:14:18;0.10;;;0.10;;
15841;SDS011;8021;48.022;11.812;2024-03-29T14:16:45;0.10;;;0.10;;
15841;SDS011;8021;48.022;11.812;2024-03-29T14:19:11;0.10;;;0.10;;
15841;SDS011;8021;48.022;11.812;2024-03-29T14:21:39;0.10;;;0.10;;
15841;SDS011;8021;48.022;11.812;2024-03-29T14:24:06;0.10;;;0.10;;
15841;SDS011;8021;48.022;11.812;2024-03-29T14:26:34;0.10;;;0.10;;
15841;SDS011;8021;48.022;11.812;2024-03-29T14:29:01;0.10;;;0.10;;
15841;SDS011;8021;48.022;11.812;2024-03-29T14:31:28;0.10;;;0.10;;
15841;SDS011;8021;48.022;11.812;2024-03-29T14:33:55;0.10;;;0.10;;
15841;SDS011;8021;48.022;11.812;2024-03-29T14:36:22;0.10;;;0.10;;
15841;SDS011;8021;48.022;11.812;2024-03-29T14:38:49;0.10;;;0.10;;
15841;SDS011;8021;48.022;11.812;2024-03-29T14:41:17;0.10;;;0.10;;
15841;SDS011;8021;48.022;11.812;2024-03-29T14:43:45;0.10;;;0.10;;
15841;SDS011;8021;48.022;11.812;2024-03-29T14:46:16;0.10;;;0.10;;
15841;SDS011;8021;48.022;11.812;2024-03-29T14:48:43;0.10;;;0.10;;